sensor_id;sensor_type;location;lat;lon;timestamp;P1;durP1;ratioP1;P2;durP2;ratioP2
14474;SDS011;7323;50.848;4.334;2022-12-15T00:02:31;41.03;;;29.27;;
14474;SDS011;7323;50.848;4.334;2022-12-15T00:05:15;39.80;;;29.50;;
14474;SDS011;7323;50.848;4.334;2022-12-15T00:08:07;41.77;;;28.73;;
14474;SDS011;7323;50.848;4.334;2022-12-15T00:10:52;43.33;;;28.47;;
14474;SDS011;7323;50.848;4.334;2022-12-15T00:13:36;41.90;;;28.50;;
14474;SDS011;7323;50.848;4.334;2022-12-15T00:16:21;41.37;;;29.70;;
14474;SDS011;7323;50.848;4.334;2022-12-15T00:19:05;43.43;;;28.93;;
14474;SDS011;7323;50.848;4.334;2022-12-15T00:21:49;43.57;;;28.07;;
14474;SDS011;7323;50.848;4.334;2022-12-15T00:24:33;46.27;;;30.87;;
14474;SDS011;7323;50.848;4.334;2022-12-15T00:27:18;45.27;;;29.80;;
14474;SDS011;7323;50.848;4.334;2022-12-15T00:30:03;47.83;;;32.03;;
14474;SDS011;7323;50.848;4.334;2022-12-15T00:32:48;46.70;;;32.10;;
14474;SDS011;7323;50.848;4.334;2022-12-15T00:35:32;53.13;;;36.00;;
14474;SDS011;7323;50.848;4.334;2022-12-15T00:38:18;47.70;;;33.67;;
14474;SDS011;7323;50.848;4.334;2022-12-15T00:41:02;48.33;;;33.20;;
14474;SDS011;7323;50.848;4.334;2022-12-15T00:43:28;48.43;;;33.03;;
14474;SDS011;7323;50.848;4.334;2022-12-15T00:45:59;46.93;;;32.33;;
14474;SDS011;7323;50.848;4.334;2022-12-15T00:48:44;48.00;;;32.87;;
14474;SDS011;7323;50.848;4.334;2022-12-15T00:51:10;50.17;;;34.30;;
14474;SDS011;7323;50.848;4.334;2022-12-15T00:53:36;42.47;;;31.03;;
14474;SDS011;7323;50.848;4.334;2022-12-15T00:56:20;49.50;;;32.47;;
14474;SDS011;7323;50.848;4.334;2022-12-15T00:59:05;42.97;;;30.10;;
14474;SDS011;7323;50.848;4.334;2022-12-15T01:01:49;46.50;;;28.77;;
14474;SDS011;7323;50.848;4.334;2022-12-15T01:04:33;43.07;;;30.87;;
14474;SDS011;7323;50.848;4.334;2022-12-15T01:07:17;50.00;;;32.30;;
14474;SDS011;7323;50.848;4.334;2022-12-15T01:10:03;53.57;;;34.83;;
14474;SDS011;7323;50.848;4.334;2022-12-15T01:12:47;44.90;;;31.73;;
14474;SDS011;7323;50.848;4.334;2022-12-15T01:15:34;46.73;;;32.07;;
14474;SDS011;7323;50.848;4.334;2022-12-15T01:18:19;43.07;;;30.53;;
14474;SDS011;7323;50.848;4.334;2022-12-15T01:21:04;50.23;;;31.97;;
14474;SDS011;7323;50.848;4.334;2022-12-15T01:23:35;51.03;;;32.53;;
14474;SDS011;7323;50.848;4.334;2022-12-15T01:26:02;43.67;;;31.13;;
14474;SDS011;7323;50.848;4.334;2022-12-15T01:28:30;41.77;;;30.83;;
14474;SDS011;7323;50.848;4.334;2022-12-15T01:30:55;41.00;;;29.93;;
14474;SDS011;7323;50.848;4.334;2022-12-15T01:33:22;45.10;;;30.33;;
14474;SDS011;7323;50.848;4.334;2022-12-15T01:36:21;46.17;;;31.37;;
14474;SDS011;7323;50.848;4.334;2022-12-15T01:38:39;42.80;;;31.20;;
14474;SDS011;7323;50.848;4.334;2022-12-15T01:41:06;46.70;;;31.23;;
14474;SDS011;7323;50.848;4.334;2022-12-15T01:43:35;40.13;;;30.03;;
14474;SDS011;7323;50.848;4.334;2022-12-15T01:46:06;41.43;;;29.27;;
14474;SDS011;7323;50.848;4.334;2022-12-15T01:48:38;46.93;;;31.80;;
14474;SDS011;7323;50.848;4.334;2022-12-15T01:51:31;41.80;;;29.50;;
14474;SDS011;7323;50.848;4.334;2022-12-15T01:54:12;44.43;;;30.43;;
14474;SDS011;7323;50.848;4.334;2022-12-15T01:56:45;41.03;;;28.70;;
14474;SDS011;7323;50.848;4.334;2022-12-15T01:59:15;41.97;;;29.33;;
14474;SDS011;7323;50.848;4.334;2022-12-15T02:01:46;46.47;;;30.23;;
14474;SDS011;7323;50.848;4.334;2022-12-15T02:04:12;42.83;;;30.30;;
14474;SDS011;7323;50.848;4.334;2022-12-15T02:06:40;42.23;;;29.33;;
14474;SDS011;7323;50.848;4.334;2022-12-15T02:09:05;45.33;;;29.70;;
14474;SDS011;7323;50.848;4.334;2022-12-15T02:11:42;42.03;;;29.50;;
14474;SDS011;7323;50.848;4.334;2022-12-15T02:17:13;44.83;;;29.00;;
14474;SDS011;7323;50.848;4.334;2022-12-15T02:22:29;41.47;;;28.57;;
14474;SDS011;7323;50.848;4.334;2022-12-15T02:28:02;42.50;;;28.17;;
14474;SDS011;7323;50.848;4.334;2022-12-15T02:30:59;40.93;;;27.93;;
14474;SDS011;7323;50.848;4.334;2022-12-15T02:33:57;40.83;;;27.97;;
14474;SDS011;7323;50.848;4.334;2022-12-15T02:36:34;39.00;;;28.03;;
14474;SDS011;7323;50.848;4.334;2022-12-15T02:39:04;42.17;;;28.77;;
14474;SDS011;7323;50.848;4.334;2022-12-15T02:44:01;42.43;;;28.93;;
14474;SDS011;7323;50.848;4.334;2022-12-15T02:52:56;40.30;;;27.87;;
14474;SDS011;7323;50.848;4.334;2022-12-15T02:58:36;40.63;;;28.83;;
14474;SDS011;7323;50.848;4.334;2022-12-15T03:01:13;40.43;;;28.43;;
14474;SDS011;7323;50.848;4.334;2022-12-15T03:04:00;39.83;;;28.20;;
14474;SDS011;7323;50.848;4.334;2022-12-15T03:06:33;43.00;;;28.57;;
14474;SDS011;7323;50.848;4.334;2022-12-15T03:08:59;38.87;;;26.30;;
14474;SDS011;7323;50.848;4.334;2022-12-15T03:11:25;45.00;;;27.73;;
14474;SDS011;7323;50.848;4.334;2022-12-15T03:13:51;41.47;;;29.17;;
14474;SDS011;7323;50.848;4.334;2022-12-15T03:16:18;43.53;;;29.50;;
14474;SDS011;7323;50.848;4.334;2022-12-15T03:18:44;38.43;;;28.33;;
14474;SDS011;7323;50.848;4.334;2022-12-15T03:21:11;38.67;;;25.70;;
14474;SDS011;7323;50.848;4.334;2022-12-15T03:23:38;39.13;;;28.03;;
14474;SDS011;7323;50.848;4.334;2022-12-15T03:26:04;40.20;;;24.97;;
14474;SDS011;7323;50.848;4.334;2022-12-15T03:28:31;41.80;;;26.87;;
14474;SDS011;7323;50.848;4.334;2022-12-15T03:30:57;40.13;;;27.20;;
14474;SDS011;7323;50.848;4.334;2022-12-15T03:33:23;38.93;;;26.53;;
14474;SDS011;7323;50.848;4.334;2022-12-15T03:35:49;37.27;;;28.03;;
14474;SDS011;7323;50.848;4.334;2022-12-15T03:38:15;38.37;;;27.00;;
14474;SDS011;7323;50.848;4.334;2022-12-15T03:40:42;39.47;;;27.30;;
14474;SDS011;7323;50.848;4.334;2022-12-15T03:43:08;41.03;;;26.83;;
14474;SDS011;7323;50.848;4.334;2022-12-15T03:45:34;38.77;;;25.63;;
14474;SDS011;7323;50.848;4.334;2022-12-15T03:48:00;39.37;;;26.53;;
14474;SDS011;7323;50.848;4.334;2022-12-15T03:50:26;39.00;;;26.37;;
14474;SDS011;7323;50.848;4.334;2022-12-15T03:52:54;39.47;;;25.67;;
14474;SDS011;7323;50.848;4.334;2022-12-15T03:55:21;38.97;;;26.80;;
14474;SDS011;7323;50.848;4.334;2022-12-15T03:57:49;38.97;;;26.17;;
14474;SDS011;7323;50.848;4.334;2022-12-15T04:00:16;36.33;;;25.00;;
14474;SDS011;7323;50.848;4.334;2022-12-15T04:02:43;38.30;;;24.60;;
14474;SDS011;7323;50.848;4.334;2022-12-15T04:05:14;41.63;;;25.47;;
14474;SDS011;7323;50.848;4.334;2022-12-15T04:07:43;34.90;;;24.37;;
14474;SDS011;7323;50.848;4.334;2022-12-15T04:10:09;36.07;;;24.63;;
14474;SDS011;7323;50.848;4.334;2022-12-15T04:12:36;33.73;;;23.57;;
14474;SDS011;7323;50.848;4.334;2022-12-15T04:15:04;36.33;;;25.20;;
14474;SDS011;7323;50.848;4.334;2022-12-15T04:17:30;35.77;;;24.60;;
14474;SDS011;7323;50.848;4.334;2022-12-15T04:19:56;42.83;;;26.47;;
14474;SDS011;7323;50.848;4.334;2022-12-15T04:22:42;40.70;;;26.80;;
14474;SDS011;7323;50.848;4.334;2022-12-15T04:25:10;35.60;;;25.47;;
14474;SDS011;7323;50.848;4.334;2022-12-15T04:28:00;35.30;;;24.77;;
14474;SDS011;7323;50.848;4.334;2022-12-15T04:30:46;34.87;;;24.70;;
14474;SDS011;7323;50.848;4.334;2022-12-15T04:33:35;34.90;;;25.17;;
14474;SDS011;7323;50.848;4.334;2022-12-15T04:36:25;38.20;;;26.23;;
14474;SDS011;7323;50.848;4.334;2022-12-15T04:39:11;35.90;;;25.10;;
14474;SDS011;7323;50.848;4.334;2022-12-15T04:41:57;36.63;;;25.77;;
14474;SDS011;7323;50.848;4.334;2022-12-15T04:44:43;37.27;;;24.30;;
14474;SDS011;7323;50.848;4.334;2022-12-15T04:47:28;36.87;;;25.07;;
14474;SDS011;7323;50.848;4.334;2022-12-15T04:50:12;34.27;;;24.80;;
14474;SDS011;7323;50.848;4.334;2022-12-15T04:53:05;32.53;;;23.70;;
14474;SDS011;7323;50.848;4.334;2022-12-15T04:55:54;33.93;;;24.03;;
14474;SDS011;7323;50.848;4.334;2022-12-15T04:58:38;34.17;;;24.10;;
14474;SDS011;7323;50.848;4.334;2022-12-15T05:01:22;38.83;;;24.73;;
14474;SDS011;7323;50.848;4.334;2022-12-15T05:04:06;34.07;;;24.00;;
14474;SDS011;7323;50.848;4.334;2022-12-15T05:06:50;34.67;;;23.23;;
14474;SDS011;7323;50.848;4.334;2022-12-15T05:09:34;36.77;;;25.00;;
14474;SDS011;7323;50.848;4.334;2022-12-15T05:12:19;34.90;;;23.30;;
14474;SDS011;7323;50.848;4.334;2022-12-15T05:15:03;34.23;;;24.20;;
14474;SDS011;7323;50.848;4.334;2022-12-15T05:17:47;37.90;;;24.60;;
14474;SDS011;7323;50.848;4.334;2022-12-15T05:20:32;37.27;;;24.33;;
14474;SDS011;7323;50.848;4.334;2022-12-15T05:23:17;36.20;;;24.47;;
14474;SDS011;7323;50.848;4.334;2022-12-15T05:26:01;35.83;;;25.47;;
14474;SDS011;7323;50.848;4.334;2022-12-15T05:28:45;39.00;;;24.47;;
14474;SDS011;7323;50.848;4.334;2022-12-15T05:31:29;37.17;;;24.60;;
14474;SDS011;7323;50.848;4.334;2022-12-15T05:34:14;35.23;;;22.90;;
14474;SDS011;7323;50.848;4.334;2022-12-15T05:36:40;38.03;;;26.07;;
14474;SDS011;7323;50.848;4.334;2022-12-15T05:39:08;34.93;;;25.07;;
14474;SDS011;7323;50.848;4.334;2022-12-15T05:41:34;39.00;;;24.87;;
14474;SDS011;7323;50.848;4.334;2022-12-15T05:43:59;41.97;;;26.30;;
14474;SDS011;7323;50.848;4.334;2022-12-15T05:46:25;36.93;;;25.43;;
14474;SDS011;7323;50.848;4.334;2022-12-15T05:48:51;36.27;;;25.43;;
14474;SDS011;7323;50.848;4.334;2022-12-15T05:51:16;37.30;;;26.67;;
14474;SDS011;7323;50.848;4.334;2022-12-15T05:53:43;37.10;;;26.40;;
14474;SDS011;7323;50.848;4.334;2022-12-15T05:56:10;39.37;;;26.63;;
14474;SDS011;7323;50.848;4.334;2022-12-15T05:58:38;41.00;;;28.77;;
14474;SDS011;7323;50.848;4.334;2022-12-15T06:01:05;38.47;;;25.07;;
14474;SDS011;7323;50.848;4.334;2022-12-15T06:03:33;34.93;;;24.30;;
14474;SDS011;7323;50.848;4.334;2022-12-15T06:05:59;32.47;;;23.43;;
14474;SDS011;7323;50.848;4.334;2022-12-15T06:08:28;37.23;;;24.53;;
14474;SDS011;7323;50.848;4.334;2022-12-15T06:10:55;32.27;;;23.07;;
14474;SDS011;7323;50.848;4.334;2022-12-15T06:13:24;36.67;;;25.10;;
14474;SDS011;7323;50.848;4.334;2022-12-15T06:15:54;34.53;;;23.43;;
14474;SDS011;7323;50.848;4.334;2022-12-15T06:18:20;36.37;;;24.30;;
14474;SDS011;7323;50.848;4.334;2022-12-15T06:20:46;31.80;;;23.17;;
14474;SDS011;7323;50.848;4.334;2022-12-15T06:23:12;38.97;;;25.13;;
14474;SDS011;7323;50.848;4.334;2022-12-15T06:25:37;37.90;;;25.47;;
14474;SDS011;7323;50.848;4.334;2022-12-15T06:28:04;36.73;;;26.20;;
14474;SDS011;7323;50.848;4.334;2022-12-15T06:30:30;37.23;;;26.40;;
14474;SDS011;7323;50.848;4.334;2022-12-15T06:32:56;34.07;;;24.40;;
14474;SDS011;7323;50.848;4.334;2022-12-15T06:35:21;35.00;;;25.90;;
14474;SDS011;7323;50.848;4.334;2022-12-15T06:37:47;35.63;;;24.90;;
14474;SDS011;7323;50.848;4.334;2022-12-15T06:40:12;38.57;;;26.17;;
14474;SDS011;7323;50.848;4.334;2022-12-15T06:42:38;35.60;;;24.77;;
14474;SDS011;7323;50.848;4.334;2022-12-15T06:45:04;36.60;;;24.40;;
14474;SDS011;7323;50.848;4.334;2022-12-15T06:47:30;37.17;;;25.07;;
14474;SDS011;7323;50.848;4.334;2022-12-15T06:49:56;35.37;;;25.10;;
14474;SDS011;7323;50.848;4.334;2022-12-15T06:52:21;36.33;;;25.03;;
14474;SDS011;7323;50.848;4.334;2022-12-15T06:54:47;37.33;;;25.77;;
14474;SDS011;7323;50.848;4.334;2022-12-15T06:57:12;36.83;;;26.27;;
14474;SDS011;7323;50.848;4.334;2022-12-15T06:59:38;42.87;;;28.03;;
14474;SDS011;7323;50.848;4.334;2022-12-15T07:02:05;43.67;;;26.83;;
14474;SDS011;7323;50.848;4.334;2022-12-15T07:04:38;38.93;;;26.57;;
14474;SDS011;7323;50.848;4.334;2022-12-15T07:07:04;38.97;;;25.97;;
14474;SDS011;7323;50.848;4.334;2022-12-15T07:09:30;42.03;;;26.93;;
14474;SDS011;7323;50.848;4.334;2022-12-15T07:11:56;42.43;;;26.37;;
14474;SDS011;7323;50.848;4.334;2022-12-15T07:14:22;40.90;;;26.00;;
14474;SDS011;7323;50.848;4.334;2022-12-15T07:16:49;37.83;;;26.10;;
14474;SDS011;7323;50.848;4.334;2022-12-15T07:19:14;41.07;;;27.10;;
14474;SDS011;7323;50.848;4.334;2022-12-15T07:21:40;37.73;;;25.20;;
14474;SDS011;7323;50.848;4.334;2022-12-15T07:24:06;39.83;;;25.20;;
14474;SDS011;7323;50.848;4.334;2022-12-15T07:26:33;39.97;;;25.70;;
14474;SDS011;7323;50.848;4.334;2022-12-15T07:28:59;40.03;;;27.63;;
14474;SDS011;7323;50.848;4.334;2022-12-15T07:31:25;37.83;;;25.93;;
14474;SDS011;7323;50.848;4.334;2022-12-15T07:33:51;34.93;;;25.13;;
14474;SDS011;7323;50.848;4.334;2022-12-15T07:36:18;38.37;;;26.23;;
14474;SDS011;7323;50.848;4.334;2022-12-15T07:38:44;34.17;;;24.53;;
14474;SDS011;7323;50.848;4.334;2022-12-15T07:41:09;38.63;;;25.10;;
14474;SDS011;7323;50.848;4.334;2022-12-15T07:43:35;41.07;;;26.60;;
14474;SDS011;7323;50.848;4.334;2022-12-15T07:46:02;41.57;;;26.30;;
14474;SDS011;7323;50.848;4.334;2022-12-15T07:48:28;36.77;;;25.13;;
14474;SDS011;7323;50.848;4.334;2022-12-15T07:50:54;37.53;;;25.07;;
14474;SDS011;7323;50.848;4.334;2022-12-15T07:53:24;36.63;;;26.20;;
14474;SDS011;7323;50.848;4.334;2022-12-15T07:55:55;37.13;;;26.57;;
14474;SDS011;7323;50.848;4.334;2022-12-15T07:58:23;37.97;;;26.60;;
14474;SDS011;7323;50.848;4.334;2022-12-15T08:00:53;40.80;;;28.20;;
14474;SDS011;7323;50.848;4.334;2022-12-15T08:03:22;38.87;;;27.83;;
14474;SDS011;7323;50.848;4.334;2022-12-15T08:05:49;38.93;;;27.90;;
14474;SDS011;7323;50.848;4.334;2022-12-15T08:08:15;43.20;;;27.57;;
14474;SDS011;7323;50.848;4.334;2022-12-15T08:10:43;41.40;;;27.17;;
14474;SDS011;7323;50.848;4.334;2022-12-15T08:13:10;38.63;;;25.10;;
14474;SDS011;7323;50.848;4.334;2022-12-15T08:15:36;41.13;;;27.87;;
14474;SDS011;7323;50.848;4.334;2022-12-15T08:18:05;42.40;;;26.30;;
14474;SDS011;7323;50.848;4.334;2022-12-15T08:20:33;38.10;;;26.00;;
14474;SDS011;7323;50.848;4.334;2022-12-15T08:22:59;41.93;;;26.70;;
14474;SDS011;7323;50.848;4.334;2022-12-15T08:25:25;40.90;;;25.33;;
14474;SDS011;7323;50.848;4.334;2022-12-15T08:27:56;43.10;;;27.80;;
14474;SDS011;7323;50.848;4.334;2022-12-15T08:30:22;38.97;;;26.00;;
14474;SDS011;7323;50.848;4.334;2022-12-15T08:32:48;38.57;;;27.13;;
14474;SDS011;7323;50.848;4.334;2022-12-15T08:35:15;38.10;;;25.00;;
14474;SDS011;7323;50.848;4.334;2022-12-15T08:37:41;39.67;;;26.10;;
14474;SDS011;7323;50.848;4.334;2022-12-15T08:40:07;36.50;;;25.60;;
14474;SDS011;7323;50.848;4.334;2022-12-15T08:42:33;40.53;;;26.03;;
14474;SDS011;7323;50.848;4.334;2022-12-15T08:44:59;40.87;;;26.50;;
14474;SDS011;7323;50.848;4.334;2022-12-15T08:47:25;41.33;;;24.83;;
14474;SDS011;7323;50.848;4.334;2022-12-15T08:49:51;46.63;;;26.20;;
14474;SDS011;7323;50.848;4.334;2022-12-15T08:52:18;39.77;;;27.30;;
14474;SDS011;7323;50.848;4.334;2022-12-15T08:54:44;39.13;;;25.90;;
14474;SDS011;7323;50.848;4.334;2022-12-15T08:57:10;40.63;;;28.60;;
14474;SDS011;7323;50.848;4.334;2022-12-15T08:59:36;38.50;;;26.27;;
14474;SDS011;7323;50.848;4.334;2022-12-15T09:02:01;40.30;;;27.10;;
14474;SDS011;7323;50.848;4.334;2022-12-15T09:04:29;40.17;;;27.30;;
14474;SDS011;7323;50.848;4.334;2022-12-15T09:06:54;43.50;;;27.47;;
14474;SDS011;7323;50.848;4.334;2022-12-15T09:09:20;38.23;;;26.30;;
14474;SDS011;7323;50.848;4.334;2022-12-15T09:11:46;40.90;;;26.50;;
14474;SDS011;7323;50.848;4.334;2022-12-15T09:14:12;42.70;;;28.50;;
14474;SDS011;7323;50.848;4.334;2022-12-15T09:16:38;48.70;;;29.10;;
14474;SDS011;7323;50.848;4.334;2022-12-15T09:19:04;47.73;;;29.47;;
14474;SDS011;7323;50.848;4.334;2022-12-15T09:21:31;43.63;;;28.07;;
14474;SDS011;7323;50.848;4.334;2022-12-15T09:23:57;45.47;;;27.70;;
14474;SDS011;7323;50.848;4.334;2022-12-15T09:26:26;41.57;;;28.90;;
14474;SDS011;7323;50.848;4.334;2022-12-15T09:28:56;45.23;;;32.10;;
14474;SDS011;7323;50.848;4.334;2022-12-15T09:31:23;44.93;;;30.17;;
14474;SDS011;7323;50.848;4.334;2022-12-15T09:33:54;43.43;;;28.77;;
14474;SDS011;7323;50.848;4.334;2022-12-15T09:36:21;42.37;;;27.90;;
14474;SDS011;7323;50.848;4.334;2022-12-15T09:38:47;39.67;;;29.77;;
14474;SDS011;7323;50.848;4.334;2022-12-15T09:46:34;43.70;;;27.67;;
14474;SDS011;7323;50.848;4.334;2022-12-15T09:51:59;38.10;;;26.10;;
14474;SDS011;7323;50.848;4.334;2022-12-15T09:54:31;45.10;;;28.17;;
14474;SDS011;7323;50.848;4.334;2022-12-15T09:57:00;45.17;;;28.00;;
14474;SDS011;7323;50.848;4.334;2022-12-15T10:05:11;45.33;;;29.10;;
14474;SDS011;7323;50.848;4.334;2022-12-15T10:07:57;43.43;;;29.10;;
14474;SDS011;7323;50.848;4.334;2022-12-15T10:12:57;41.80;;;30.20;;
14474;SDS011;7323;50.848;4.334;2022-12-15T10:15:28;46.17;;;30.57;;
14474;SDS011;7323;50.848;4.334;2022-12-15T10:18:06;44.53;;;29.70;;
14474;SDS011;7323;50.848;4.334;2022-12-15T10:20:43;42.93;;;29.27;;
14474;SDS011;7323;50.848;4.334;2022-12-15T10:23:10;49.60;;;32.33;;
14474;SDS011;7323;50.848;4.334;2022-12-15T10:25:38;45.43;;;31.47;;
14474;SDS011;7323;50.848;4.334;2022-12-15T10:28:22;51.20;;;30.27;;
14474;SDS011;7323;50.848;4.334;2022-12-15T10:31:14;39.87;;;28.53;;
14474;SDS011;7323;50.848;4.334;2022-12-15T10:33:41;44.97;;;28.90;;
14474;SDS011;7323;50.848;4.334;2022-12-15T10:36:10;41.37;;;29.17;;
14474;SDS011;7323;50.848;4.334;2022-12-15T10:38:44;42.80;;;27.63;;
14474;SDS011;7323;50.848;4.334;2022-12-15T10:41:15;40.73;;;27.70;;
14474;SDS011;7323;50.848;4.334;2022-12-15T10:43:44;44.87;;;29.60;;
14474;SDS011;7323;50.848;4.334;2022-12-15T10:46:19;41.53;;;29.20;;
14474;SDS011;7323;50.848;4.334;2022-12-15T10:48:48;43.57;;;28.83;;
14474;SDS011;7323;50.848;4.334;2022-12-15T10:51:30;40.27;;;28.67;;
14474;SDS011;7323;50.848;4.334;2022-12-15T10:56:29;39.73;;;27.63;;
14474;SDS011;7323;50.848;4.334;2022-12-15T10:58:56;39.77;;;26.10;;
14474;SDS011;7323;50.848;4.334;2022-12-15T11:01:25;38.90;;;27.43;;
14474;SDS011;7323;50.848;4.334;2022-12-15T11:04:23;40.67;;;26.77;;
14474;SDS011;7323;50.848;4.334;2022-12-15T11:07:01;38.03;;;26.03;;
14474;SDS011;7323;50.848;4.334;2022-12-15T11:09:34;41.07;;;28.80;;
14474;SDS011;7323;50.848;4.334;2022-12-15T11:12:09;44.67;;;28.23;;
14474;SDS011;7323;50.848;4.334;2022-12-15T11:17:52;39.30;;;26.57;;
14474;SDS011;7323;50.848;4.334;2022-12-15T11:20:29;34.90;;;26.83;;
14474;SDS011;7323;50.848;4.334;2022-12-15T11:25:50;34.93;;;25.27;;
14474;SDS011;7323;50.848;4.334;2022-12-15T11:28:40;35.13;;;25.10;;
14474;SDS011;7323;50.848;4.334;2022-12-15T11:34:21;40.27;;;25.50;;
14474;SDS011;7323;50.848;4.334;2022-12-15T11:42:21;37.03;;;25.30;;
14474;SDS011;7323;50.848;4.334;2022-12-15T11:47:45;37.83;;;27.00;;
14474;SDS011;7323;50.848;4.334;2022-12-15T11:50:47;37.47;;;25.80;;
14474;SDS011;7323;50.848;4.334;2022-12-15T12:04:23;48.40;;;26.80;;
14474;SDS011;7323;50.848;4.334;2022-12-15T12:09:27;36.80;;;26.97;;
14474;SDS011;7323;50.848;4.334;2022-12-15T12:11:54;37.73;;;26.93;;
14474;SDS011;7323;50.848;4.334;2022-12-15T12:17:06;39.97;;;26.80;;
14474;SDS011;7323;50.848;4.334;2022-12-15T12:19:50;34.87;;;26.87;;
14474;SDS011;7323;50.848;4.334;2022-12-15T12:25:13;38.87;;;28.87;;
14474;SDS011;7323;50.848;4.334;2022-12-15T12:27:43;37.60;;;27.13;;
14474;SDS011;7323;50.848;4.334;2022-12-15T12:30:19;39.60;;;27.57;;
14474;SDS011;7323;50.848;4.334;2022-12-15T12:32:52;41.20;;;31.13;;
14474;SDS011;7323;50.848;4.334;2022-12-15T12:35:51;36.87;;;29.73;;
14474;SDS011;7323;50.848;4.334;2022-12-15T12:38:35;40.20;;;27.47;;
14474;SDS011;7323;50.848;4.334;2022-12-15T12:41:22;38.07;;;27.13;;
14474;SDS011;7323;50.848;4.334;2022-12-15T12:44:00;41.40;;;27.20;;
14474;SDS011;7323;50.848;4.334;2022-12-15T12:46:34;34.03;;;25.83;;
14474;SDS011;7323;50.848;4.334;2022-12-15T12:49:11;35.93;;;24.20;;
14474;SDS011;7323;50.848;4.334;2022-12-15T12:51:39;35.20;;;25.53;;
14474;SDS011;7323;50.848;4.334;2022-12-15T12:54:49;39.23;;;26.17;;
14474;SDS011;7323;50.848;4.334;2022-12-15T12:56:55;35.47;;;25.67;;
14474;SDS011;7323;50.848;4.334;2022-12-15T13:04:40;38.63;;;25.47;;
14474;SDS011;7323;50.848;4.334;2022-12-15T13:07:27;25.70;;;21.10;;
14474;SDS011;7323;50.848;4.334;2022-12-15T13:15:10;26.27;;;19.07;;
14474;SDS011;7323;50.848;4.334;2022-12-15T13:17:54;28.67;;;19.83;;
14474;SDS011;7323;50.848;4.334;2022-12-15T13:20:29;29.87;;;20.13;;
14474;SDS011;7323;50.848;4.334;2022-12-15T13:23:32;24.90;;;18.30;;
14474;SDS011;7323;50.848;4.334;2022-12-15T13:41:40;18.90;;;11.93;;
14474;SDS011;7323;50.848;4.334;2022-12-15T13:46:45;22.20;;;14.43;;
14474;SDS011;7323;50.848;4.334;2022-12-15T13:49:30;19.50;;;14.30;;
14474;SDS011;7323;50.848;4.334;2022-12-15T13:55:02;26.90;;;15.63;;
14474;SDS011;7323;50.848;4.334;2022-12-15T13:57:44;19.13;;;14.50;;
14474;SDS011;7323;50.848;4.334;2022-12-15T14:00:33;20.57;;;12.83;;
14474;SDS011;7323;50.848;4.334;2022-12-15T14:03:20;22.40;;;14.43;;
14474;SDS011;7323;50.848;4.334;2022-12-15T14:05:47;21.90;;;14.13;;
14474;SDS011;7323;50.848;4.334;2022-12-15T14:08:17;23.60;;;12.90;;
14474;SDS011;7323;50.848;4.334;2022-12-15T14:10:55;21.60;;;14.57;;
14474;SDS011;7323;50.848;4.334;2022-12-15T14:16:14;21.63;;;15.70;;
14474;SDS011;7323;50.848;4.334;2022-12-15T14:18:42;14.50;;;8.73;;
14474;SDS011;7323;50.848;4.334;2022-12-15T14:21:22;12.93;;;8.87;;
14474;SDS011;7323;50.848;4.334;2022-12-15T14:23:51;18.80;;;11.70;;
14474;SDS011;7323;50.848;4.334;2022-12-15T14:26:17;15.47;;;10.27;;
14474;SDS011;7323;50.848;4.334;2022-12-15T14:28:43;19.13;;;11.10;;
14474;SDS011;7323;50.848;4.334;2022-12-15T14:31:21;17.33;;;11.67;;
14474;SDS011;7323;50.848;4.334;2022-12-15T14:33:49;14.90;;;11.23;;
14474;SDS011;7323;50.848;4.334;2022-12-15T14:36:29;17.53;;;12.97;;
14474;SDS011;7323;50.848;4.334;2022-12-15T14:39:06;22.47;;;13.13;;
14474;SDS011;7323;50.848;4.334;2022-12-15T14:41:50;23.70;;;15.17;;
14474;SDS011;7323;50.848;4.334;2022-12-15T14:44:31;22.57;;;14.83;;
14474;SDS011;7323;50.848;4.334;2022-12-15T14:47:03;19.20;;;13.37;;
14474;SDS011;7323;50.848;4.334;2022-12-15T14:49:35;24.27;;;14.53;;
14474;SDS011;7323;50.848;4.334;2022-12-15T14:52:05;24.83;;;15.97;;
14474;SDS011;7323;50.848;4.334;2022-12-15T14:57:44;23.40;;;16.13;;
14474;SDS011;7323;50.848;4.334;2022-12-15T15:00:31;23.53;;;16.27;;
14474;SDS011;7323;50.848;4.334;2022-12-15T15:03:16;23.07;;;16.70;;
14474;SDS011;7323;50.848;4.334;2022-12-15T15:08:50;28.50;;;18.20;;
14474;SDS011;7323;50.848;4.334;2022-12-15T15:11:30;24.80;;;17.20;;
14474;SDS011;7323;50.848;4.334;2022-12-15T15:17:20;30.30;;;20.57;;
14474;SDS011;7323;50.848;4.334;2022-12-15T15:19:52;27.43;;;19.80;;
14474;SDS011;7323;50.848;4.334;2022-12-15T15:22:24;24.90;;;17.63;;
14474;SDS011;7323;50.848;4.334;2022-12-15T15:25:01;28.10;;;18.47;;
14474;SDS011;7323;50.848;4.334;2022-12-15T15:27:43;29.37;;;19.70;;
14474;SDS011;7323;50.848;4.334;2022-12-15T15:30:19;26.37;;;18.70;;
14474;SDS011;7323;50.848;4.334;2022-12-15T15:32:53;25.23;;;17.63;;
14474;SDS011;7323;50.848;4.334;2022-12-15T15:35:21;25.10;;;18.93;;
14474;SDS011;7323;50.848;4.334;2022-12-15T15:37:49;27.43;;;19.30;;
14474;SDS011;7323;50.848;4.334;2022-12-15T15:40:16;27.70;;;20.43;;
14474;SDS011;7323;50.848;4.334;2022-12-15T15:42:43;25.77;;;18.80;;
14474;SDS011;7323;50.848;4.334;2022-12-15T15:45:11;25.70;;;18.63;;
14474;SDS011;7323;50.848;4.334;2022-12-15T15:47:41;25.10;;;18.07;;
14474;SDS011;7323;50.848;4.334;2022-12-15T15:50:11;23.73;;;16.60;;
14474;SDS011;7323;50.848;4.334;2022-12-15T15:52:39;24.17;;;18.13;;
14474;SDS011;7323;50.848;4.334;2022-12-15T15:55:07;21.20;;;15.23;;
14474;SDS011;7323;50.848;4.334;2022-12-15T15:57:37;22.17;;;14.57;;
14474;SDS011;7323;50.848;4.334;2022-12-15T16:00:13;22.23;;;14.27;;
14474;SDS011;7323;50.848;4.334;2022-12-15T16:02:41;20.90;;;15.90;;
14474;SDS011;7323;50.848;4.334;2022-12-15T16:05:08;23.20;;;16.40;;
14474;SDS011;7323;50.848;4.334;2022-12-15T16:07:33;25.03;;;16.87;;
14474;SDS011;7323;50.848;4.334;2022-12-15T16:09:59;20.80;;;15.97;;
14474;SDS011;7323;50.848;4.334;2022-12-15T16:12:28;26.30;;;16.67;;
14474;SDS011;7323;50.848;4.334;2022-12-15T16:15:07;22.00;;;17.30;;
14474;SDS011;7323;50.848;4.334;2022-12-15T16:17:44;23.50;;;17.67;;
14474;SDS011;7323;50.848;4.334;2022-12-15T16:20:11;25.77;;;19.03;;
14474;SDS011;7323;50.848;4.334;2022-12-15T16:22:38;28.83;;;18.43;;
14474;SDS011;7323;50.848;4.334;2022-12-15T16:25:05;23.20;;;17.30;;
14474;SDS011;7323;50.848;4.334;2022-12-15T16:27:36;26.43;;;18.53;;
14474;SDS011;7323;50.848;4.334;2022-12-15T16:30:07;26.10;;;18.13;;
14474;SDS011;7323;50.848;4.334;2022-12-15T16:32:42;28.00;;;18.80;;
14474;SDS011;7323;50.848;4.334;2022-12-15T16:35:08;26.90;;;19.83;;
14474;SDS011;7323;50.848;4.334;2022-12-15T16:37:34;28.77;;;19.23;;
14474;SDS011;7323;50.848;4.334;2022-12-15T16:40:00;28.63;;;21.10;;
14474;SDS011;7323;50.848;4.334;2022-12-15T16:42:26;29.30;;;21.40;;
14474;SDS011;7323;50.848;4.334;2022-12-15T16:44:51;28.47;;;20.70;;
14474;SDS011;7323;50.848;4.334;2022-12-15T16:47:17;31.20;;;22.40;;
14474;SDS011;7323;50.848;4.334;2022-12-15T16:49:43;31.70;;;22.77;;
14474;SDS011;7323;50.848;4.334;2022-12-15T16:52:18;30.47;;;23.97;;
14474;SDS011;7323;50.848;4.334;2022-12-15T16:54:46;30.60;;;22.73;;
14474;SDS011;7323;50.848;4.334;2022-12-15T16:57:13;30.00;;;23.30;;
14474;SDS011;7323;50.848;4.334;2022-12-15T16:59:39;33.70;;;23.20;;
14474;SDS011;7323;50.848;4.334;2022-12-15T17:05:03;40.20;;;28.50;;
14474;SDS011;7323;50.848;4.334;2022-12-15T17:07:30;40.90;;;27.97;;
14474;SDS011;7323;50.848;4.334;2022-12-15T17:09:56;157.30;;;80.23;;